createdAt,value
2023-03-22T00:01:21.752Z,10.30
2023-03-22T00:03:49.422Z,10.30
2023-03-22T00:06:16.850Z,10.20
2023-03-22T00:08:44.606Z,10.20
2023-03-22T00:11:12.875Z,10.20
2023-03-22T00:13:43.034Z,10.20
2023-03-22T00:16:11.110Z,10.10
2023-03-22T00:18:38.227Z,10.10
2023-03-22T00:21:05.876Z,10.10
2023-03-22T00:23:32.849Z,10.10
2023-03-22T00:25:59.993Z,10.00
2023-03-22T00:28:26.937Z,10.00
2023-03-22T00:31:00.058Z,10.00
2023-03-22T00:33:28.889Z,10.00
2023-03-22T00:35:59.551Z,9.90
2023-03-22T00:38:42.382Z,9.90
2023-03-22T00:41:16.336Z,9.90
2023-03-22T00:43:46.109Z,9.90
2023-03-22T00:47:04.366Z,9.80
2023-03-22T00:49:31.587Z,9.80
2023-03-22T00:51:58.575Z,9.70
2023-03-22T00:54:25.720Z,9.60
2023-03-22T00:56:52.874Z,9.60
2023-03-22T00:59:19.888Z,9.50
2023-03-22T01:01:46.925Z,9.40
2023-03-22T01:04:18.109Z,9.40
2023-03-22T01:06:47.337Z,9.30
2023-03-22T01:09:15.266Z,9.30
2023-03-22T01:11:43.555Z,9.20
2023-03-22T01:14:10.705Z,9.10
2023-03-22T01:16:37.846Z,9.00
2023-03-22T01:19:04.935Z,8.90
2023-03-22T01:21:32.302Z,8.90
2023-03-22T01:23:59.362Z,8.90
2023-03-22T01:26:26.360Z,8.80
2023-03-22T01:28:53.337Z,8.80
2023-03-22T01:31:20.421Z,8.80
2023-03-22T01:33:47.715Z,8.70
2023-03-22T01:36:14.889Z,8.70
2023-03-22T01:38:41.974Z,8.70
2023-03-22T01:41:09.071Z,8.70
2023-03-22T01:43:39.822Z,8.60
2023-03-22T01:46:08.321Z,8.60
2023-03-22T01:48:42.242Z,8.60
2023-03-22T01:51:16.975Z,8.50
2023-03-22T01:54:06.549Z,8.50
2023-03-22T01:56:38.812Z,8.40
2023-03-22T01:59:09.763Z,8.40
2023-03-22T02:02:03.769Z,8.30
2023-03-22T02:04:39.331Z,8.30
2023-03-22T02:07:15.651Z,8.30
2023-03-22T02:09:46.658Z,8.20
2023-03-22T02:12:35.776Z,8.20
2023-03-22T02:15:22.866Z,8.10
2023-03-22T02:18:24.041Z,8.10
2023-03-22T02:21:02.549Z,8.10
2023-03-22T02:23:48.113Z,8.00
2023-03-22T02:26:49.641Z,7.90
2023-03-22T02:29:36.811Z,7.90
2023-03-22T02:32:03.802Z,7.90
2023-03-22T02:38:48.564Z,7.80
2023-03-22T02:41:42.978Z,7.80
2023-03-22T02:44:20.873Z,7.80
2023-03-22T02:47:28.463Z,7.80
2023-03-22T02:50:15.931Z,7.70
2023-03-22T02:53:26.580Z,7.70
2023-03-22T02:56:02.125Z,7.70
2023-03-22T02:58:39.340Z,7.70
2023-03-22T03:01:12.938Z,7.70
2023-03-22T03:03:40.367Z,7.60
2023-03-22T03:06:12.956Z,7.60
2023-03-22T03:09:36.004Z,7.60
2023-03-22T03:12:03.004Z,7.50
2023-03-22T03:14:32.682Z,7.50
2023-03-22T03:17:37.886Z,7.50
2023-03-22T03:20:24.347Z,7.40
2023-03-22T03:23:37.327Z,7.30
2023-03-22T03:26:13.685Z,7.30
2023-03-22T03:28:57.197Z,7.40
2023-03-22T03:31:27.266Z,7.40
2023-03-22T03:34:25.719Z,7.40
2023-03-22T03:37:00.767Z,7.40
2023-03-22T03:39:32.777Z,7.40
2023-03-22T03:42:02.370Z,7.30
2023-03-22T03:44:31.632Z,7.40
2023-03-22T03:46:59.796Z,7.40
2023-03-22T03:49:27.372Z,7.30
2023-03-22T03:51:56.212Z,7.30
2023-03-22T03:54:23.977Z,7.30
2023-03-22T03:56:51.197Z,7.30
2023-03-22T03:59:20.977Z,7.30
2023-03-22T04:01:52.375Z,7.30
2023-03-22T04:04:29.842Z,7.30
2023-03-22T04:07:06.176Z,7.20
2023-03-22T04:09:38.254Z,7.10
2023-03-22T04:12:18.852Z,7.10
2023-03-22T04:15:06.333Z,7.10
2023-03-22T04:17:33.604Z,7.10
2023-03-22T04:20:05.912Z,7.10
2023-03-22T04:22:34.711Z,7.10
2023-03-22T04:25:02.392Z,7.20
2023-03-22T04:27:30.172Z,7.20
2023-03-22T04:30:05.021Z,7.10
2023-03-22T04:32:52.015Z,7.20
2023-03-22T04:35:24.627Z,7.10
2023-03-22T04:37:53.869Z,7.10
2023-03-22T04:40:22.083Z,7.10
2023-03-22T04:43:04.154Z,7.10
2023-03-22T04:45:55.056Z,7.10
2023-03-22T04:48:28.159Z,7.10
2023-03-22T04:50:57.354Z,7.00
2023-03-22T04:53:27.670Z,7.00
2023-03-22T04:55:59.815Z,7.00
2023-03-22T04:58:29.257Z,6.90
2023-03-22T05:00:56.300Z,6.90
2023-03-22T05:03:23.874Z,6.90
2023-03-22T05:05:58.713Z,6.80
2023-03-22T05:08:34.164Z,6.70
2023-03-22T05:11:12.473Z,6.60
2023-03-22T05:13:40.005Z,6.50
2023-03-22T05:16:08.625Z,6.50
2023-03-22T05:18:45.701Z,6.50
2023-03-22T05:21:17.955Z,6.50
2023-03-22T05:23:46.280Z,6.50
2023-03-22T05:26:16.223Z,6.50
2023-03-22T05:28:44.504Z,6.50
2023-03-22T05:31:34.739Z,6.60
2023-03-22T05:34:03.379Z,6.60
2023-03-22T05:36:31.494Z,6.60
2023-03-22T05:39:10.448Z,6.60
2023-03-22T05:41:37.548Z,6.70
2023-03-22T05:44:05.456Z,6.70
2023-03-22T05:46:34.061Z,6.80
2023-03-22T05:49:22.049Z,6.80
2023-03-22T05:51:50.673Z,6.90
2023-03-22T05:54:18.619Z,6.90
2023-03-22T05:56:49.921Z,7.00
2023-03-22T05:59:17.428Z,7.00
2023-03-22T06:01:45.069Z,7.10
2023-03-22T06:04:18.857Z,7.10
2023-03-22T06:06:57.946Z,7.10
2023-03-22T06:09:47.528Z,7.20
2023-03-22T06:12:22.686Z,7.20
2023-03-22T06:14:53.588Z,7.30
2023-03-22T06:17:36.654Z,7.30
2023-03-22T06:20:32.322Z,7.40
2023-03-22T06:23:04.108Z,7.40
2023-03-22T06:25:32.018Z,7.50
2023-03-22T06:27:59.752Z,7.60
2023-03-22T06:30:28.494Z,7.70
2023-03-22T06:33:18.635Z,7.70
2023-03-22T06:35:50.334Z,7.80
2023-03-22T06:38:25.885Z,8.00
2023-03-22T06:40:53.339Z,8.10
2023-03-22T06:43:20.777Z,8.20
2023-03-22T06:45:50.232Z,8.20
2023-03-22T06:48:22.637Z,8.30
2023-03-22T06:51:04.029Z,8.40
2023-03-22T06:53:34.052Z,8.50
2023-03-22T06:56:02.215Z,8.60
2023-03-22T06:58:30.307Z,8.60
2023-03-22T07:00:58.292Z,8.70
2023-03-22T07:03:26.570Z,8.70
2023-03-22T07:06:16.246Z,8.80
2023-03-22T07:08:47.123Z,8.80
2023-03-22T07:11:18.743Z,8.90
2023-03-22T07:13:50.507Z,9.00
2023-03-22T07:16:21.679Z,9.10
2023-03-22T07:18:55.981Z,9.20
2023-03-22T07:21:23.494Z,9.30
2023-03-22T07:23:58.296Z,9.30
2023-03-22T07:26:30.596Z,9.40
2023-03-22T07:28:58.821Z,9.50
2023-03-22T07:35:48.780Z,9.50
2023-03-22T07:38:16.071Z,9.50
2023-03-22T07:40:43.144Z,9.60
2023-03-22T07:43:13.222Z,9.60
2023-03-22T07:45:54.009Z,9.70
2023-03-22T07:48:44.206Z,9.70
2023-03-22T07:51:30.453Z,9.80
2023-03-22T07:53:58.197Z,9.90
2023-03-22T07:56:25.292Z,10.00
2023-03-22T07:58:53.495Z,10.10
2023-03-22T08:02:35.630Z,10.20
2023-03-22T08:05:03.155Z,10.40
2023-03-22T08:07:42.452Z,10.50
2023-03-22T08:10:11.520Z,10.60
2023-03-22T08:12:38.563Z,10.80
2023-03-22T08:15:26.340Z,10.90
2023-03-22T08:17:53.983Z,11.10
2023-03-22T08:20:30.227Z,11.30
2023-03-22T08:23:01.493Z,11.50
2023-03-22T08:26:39.481Z,11.70
2023-03-22T08:29:15.619Z,11.90
2023-03-22T08:31:47.125Z,12.10
2023-03-22T08:34:14.237Z,12.30
2023-03-22T08:36:41.333Z,12.60
2023-03-22T08:39:09.700Z,12.70
2023-03-22T08:41:44.772Z,12.80
2023-03-22T08:44:11.754Z,13.00
2023-03-22T08:46:38.811Z,13.20
2023-03-22T08:49:06.387Z,13.30
2023-03-22T08:51:41.086Z,13.40
2023-03-22T08:54:16.647Z,13.60
2023-03-22T08:56:52.614Z,13.80
2023-03-22T08:59:33.416Z,13.90
2023-03-22T09:02:26.383Z,14.10
2023-03-22T09:04:54.103Z,14.20
2023-03-22T09:07:21.379Z,14.20
2023-03-22T09:09:57.830Z,14.20
2023-03-22T09:12:26.329Z,14.20
2023-03-22T09:15:48.072Z,14.30
2023-03-22T09:18:25.440Z,14.50
2023-03-22T09:20:54.175Z,14.60
2023-03-22T09:23:26.560Z,14.60
2023-03-22T09:25:54.539Z,14.60
2023-03-22T09:28:25.281Z,14.70
2023-03-22T09:30:55.496Z,14.70
2023-03-22T09:33:23.446Z,14.80
2023-03-22T09:35:54.507Z,14.80
2023-03-22T09:38:21.660Z,14.90
2023-03-22T09:41:00.963Z,15.00
2023-03-22T09:43:36.040Z,15.10
2023-03-22T09:46:06.681Z,15.30
2023-03-22T09:48:42.143Z,15.20
2023-03-22T09:51:29.120Z,15.10
2023-03-22T09:53:56.103Z,15.20
2023-03-22T09:56:26.137Z,15.40
2023-03-22T09:58:53.110Z,15.50
2023-03-22T10:01:52.220Z,15.60
2023-03-22T10:04:22.156Z,15.70
2023-03-22T10:06:50.758Z,15.70
2023-03-22T10:09:36.928Z,15.70
2023-03-22T10:12:19.255Z,15.90
2023-03-22T10:19:21.419Z,15.80
2023-03-22T10:21:50.532Z,15.90
2023-03-22T10:24:30.128Z,15.80
2023-03-22T10:26:57.536Z,15.70
2023-03-22T10:29:40.135Z,15.70
2023-03-22T10:32:19.042Z,15.80
2023-03-22T10:34:46.767Z,16.00
2023-03-22T10:37:22.426Z,16.20
2023-03-22T10:39:53.980Z,16.30
2023-03-22T10:42:27.966Z,16.20
2023-03-22T10:44:57.809Z,16.20
2023-03-22T10:47:42.926Z,16.20
2023-03-22T10:50:26.733Z,16.30
2023-03-22T10:53:07.088Z,16.30
2023-03-22T10:55:41.365Z,16.40
2023-03-22T10:58:22.813Z,16.40
2023-03-22T11:00:52.338Z,16.60
2023-03-22T11:03:27.589Z,16.90
2023-03-22T11:06:22.118Z,17.10
2023-03-22T11:08:54.845Z,17.40
2023-03-22T11:11:26.217Z,17.40
2023-03-22T11:14:13.252Z,17.20
2023-03-22T11:17:06.514Z,17.20
2023-03-22T11:19:42.392Z,17.50
2023-03-22T11:22:26.540Z,17.60
2023-03-22T11:24:56.922Z,17.70
2023-03-22T11:27:33.527Z,17.80
2023-03-22T11:30:17.566Z,17.90
2023-03-22T11:32:44.625Z,17.70
2023-03-22T11:35:22.023Z,17.50
2023-03-22T11:37:54.175Z,17.30
2023-03-22T11:40:30.474Z,17.40
2023-03-22T11:43:18.126Z,17.40
2023-03-22T11:45:46.006Z,17.50
2023-03-22T11:48:20.822Z,17.80
2023-03-22T11:50:49.490Z,18.10
2023-03-22T11:53:21.424Z,18.40
2023-03-22T11:55:50.269Z,18.60
2023-03-22T11:58:37.509Z,18.70
2023-03-22T12:01:06.123Z,18.80
2023-03-22T12:03:40.339Z,18.90
2023-03-22T12:06:23.009Z,19.00
2023-03-22T12:09:03.200Z,18.70
2023-03-22T12:12:03.763Z,18.50
2023-03-22T12:14:51.369Z,18.40
2023-03-22T12:17:34.205Z,18.10
2023-03-22T12:20:20.988Z,17.90
2023-03-22T12:22:52.878Z,17.60
2023-03-22T12:25:23.754Z,17.60
2023-03-22T12:28:25.293Z,17.50
2023-03-22T12:30:58.729Z,17.40
2023-03-22T12:33:33.055Z,17.50
2023-03-22T12:36:03.956Z,17.70
2023-03-22T12:38:53.620Z,17.90
2023-03-22T12:41:38.279Z,18.00
2023-03-22T12:44:17.591Z,18.10
2023-03-22T12:47:19.515Z,18.20
2023-03-22T12:49:59.065Z,18.10
2023-03-22T12:52:45.502Z,18.00
2023-03-22T12:55:29.422Z,18.10
2023-03-22T12:57:57.258Z,18.00
2023-03-22T13:00:39.652Z,18.10
2023-03-22T13:03:16.366Z,18.10
2023-03-22T13:10:30.550Z,17.90
2023-03-22T13:13:23.110Z,17.90
2023-03-22T13:15:56.041Z,17.90
2023-03-22T13:18:40.401Z,17.80
2023-03-22T13:21:19.457Z,17.70
2023-03-22T13:24:05.959Z,17.60
2023-03-22T13:26:38.220Z,17.90
2023-03-22T13:29:15.487Z,18.10
2023-03-22T13:31:58.272Z,18.30
2023-03-22T13:38:37.539Z,18.60
2023-03-22T13:41:09.492Z,18.80
2023-03-22T13:43:44.278Z,19.00
2023-03-22T13:46:20.858Z,19.20
2023-03-22T13:48:48.479Z,19.20
2023-03-22T13:51:31.997Z,19.20
2023-03-22T13:54:13.291Z,19.30
2023-03-22T13:57:01.743Z,19.30
2023-03-22T14:00:47.437Z,19.30
2023-03-22T14:03:31.114Z,19.40
2023-03-22T14:06:27.935Z,19.60
2023-03-22T14:09:06.805Z,19.70
2023-03-22T14:11:53.226Z,19.50
2023-03-22T14:14:26.056Z,19.40
2023-03-22T14:17:12.010Z,19.50
2023-03-22T14:20:12.276Z,19.60
